Terminal Aerodrome Forecast
Issued by NWS

Home | Current Version | Previous Version | Text Only | Print | Product List | Glossary On
Versions: 1 2 3 4 5 6 7 8 9 10 11 12 13 14 15
641
FTUS45 KRIW 201120
TAFCPR
TAF
KCPR 201120Z 2012/2112 21009KT P6SM SCT100
     FM202100 21010G20KT P6SM VCTS SCT080CB BKN150
     FM210800 25006KT P6SM SCT150=

USA.gov is the U.S. government's official web portal to all federal, state and local government web resources and services.